sensor_id;sensor_type;location;lat;lon;timestamp;P1;durP1;ratioP1;P2;durP2;ratioP2
9836;SDS011;4957;51.412;6.724;2023-02-15T00:01:42;34.00;;;18.00;;
9836;SDS011;4957;51.412;6.724;2023-02-15T00:04:08;32.10;;;17.37;;
9836;SDS011;4957;51.412;6.724;2023-02-15T00:06:35;33.73;;;18.23;;
9836;SDS011;4957;51.412;6.724;2023-02-15T00:09:01;33.20;;;17.03;;
9836;SDS011;4957;51.412;6.724;2023-02-15T00:11:27;32.80;;;17.40;;
9836;SDS011;4957;51.412;6.724;2023-02-15T00:14:07;33.57;;;18.27;;
9836;SDS011;4957;51.412;6.724;2023-02-15T00:16:37;34.83;;;19.37;;
9836;SDS011;4957;51.412;6.724;2023-02-15T00:19:04;31.60;;;19.53;;
9836;SDS011;4957;51.412;6.724;2023-02-15T00:21:31;29.83;;;16.70;;
9836;SDS011;4957;51.412;6.724;2023-02-15T00:23:58;32.37;;;18.07;;
9836;SDS011;4957;51.412;6.724;2023-02-15T00:26:26;32.63;;;17.00;;
9836;SDS011;4957;51.412;6.724;2023-02-15T00:28:52;31.20;;;16.67;;
9836;SDS011;4957;51.412;6.724;2023-02-15T00:31:18;29.87;;;17.03;;
9836;SDS011;4957;51.412;6.724;2023-02-15T00:33:44;32.33;;;17.97;;
9836;SDS011;4957;51.412;6.724;2023-02-15T00:36:09;32.67;;;18.20;;
9836;SDS011;4957;51.412;6.724;2023-02-15T00:38:36;33.17;;;18.37;;
9836;SDS011;4957;51.412;6.724;2023-02-15T00:41:03;31.83;;;17.83;;
9836;SDS011;4957;51.412;6.724;2023-02-15T00:43:31;33.57;;;18.90;;
9836;SDS011;4957;51.412;6.724;2023-02-15T00:45:58;34.00;;;19.33;;
9836;SDS011;4957;51.412;6.724;2023-02-15T00:48:24;31.80;;;18.43;;
9836;SDS011;4957;51.412;6.724;2023-02-15T00:50:51;35.10;;;18.77;;
9836;SDS011;4957;51.412;6.724;2023-02-15T00:53:18;33.37;;;17.60;;
9836;SDS011;4957;51.412;6.724;2023-02-15T00:55:44;33.03;;;17.80;;
9836;SDS011;4957;51.412;6.724;2023-02-15T00:58:10;35.27;;;18.77;;
9836;SDS011;4957;51.412;6.724;2023-02-15T01:00:36;33.97;;;18.73;;
9836;SDS011;4957;51.412;6.724;2023-02-15T01:03:03;30.53;;;17.43;;
9836;SDS011;4957;51.412;6.724;2023-02-15T01:05:30;29.87;;;15.87;;
9836;SDS011;4957;51.412;6.724;2023-02-15T01:07:56;33.47;;;18.23;;
9836;SDS011;4957;51.412;6.724;2023-02-15T01:10:22;36.03;;;18.87;;
9836;SDS011;4957;51.412;6.724;2023-02-15T01:12:49;30.60;;;17.57;;
9836;SDS011;4957;51.412;6.724;2023-02-15T01:15:16;32.10;;;17.13;;
9836;SDS011;4957;51.412;6.724;2023-02-15T01:17:42;32.30;;;17.97;;
9836;SDS011;4957;51.412;6.724;2023-02-15T01:20:10;36.40;;;18.77;;
9836;SDS011;4957;51.412;6.724;2023-02-15T01:22:37;30.10;;;17.80;;
9836;SDS011;4957;51.412;6.724;2023-02-15T01:25:02;37.27;;;20.10;;
9836;SDS011;4957;51.412;6.724;2023-02-15T01:27:28;34.90;;;19.43;;
9836;SDS011;4957;51.412;6.724;2023-02-15T01:29:56;37.50;;;19.60;;
9836;SDS011;4957;51.412;6.724;2023-02-15T01:32:22;37.03;;;19.50;;
9836;SDS011;4957;51.412;6.724;2023-02-15T01:34:47;33.90;;;18.10;;
9836;SDS011;4957;51.412;6.724;2023-02-15T01:37:13;34.83;;;18.57;;
9836;SDS011;4957;51.412;6.724;2023-02-15T01:39:39;33.93;;;17.87;;
9836;SDS011;4957;51.412;6.724;2023-02-15T01:42:04;32.83;;;17.67;;
9836;SDS011;4957;51.412;6.724;2023-02-15T01:47:35;32.23;;;16.37;;
9836;SDS011;4957;51.412;6.724;2023-02-15T01:50:12;31.07;;;18.00;;
9836;SDS011;4957;51.412;6.724;2023-02-15T01:52:55;32.17;;;18.37;;
9836;SDS011;4957;51.412;6.724;2023-02-15T01:56:00;36.13;;;19.00;;
9836;SDS011;4957;51.412;6.724;2023-02-15T01:58:31;35.90;;;21.20;;
9836;SDS011;4957;51.412;6.724;2023-02-15T02:00:59;35.57;;;18.97;;
9836;SDS011;4957;51.412;6.724;2023-02-15T02:03:48;37.50;;;20.27;;
9836;SDS011;4957;51.412;6.724;2023-02-15T02:06:23;33.53;;;19.07;;
9836;SDS011;4957;51.412;6.724;2023-02-15T02:08:50;37.97;;;19.10;;
9836;SDS011;4957;51.412;6.724;2023-02-15T02:11:17;34.10;;;19.33;;
9836;SDS011;4957;51.412;6.724;2023-02-15T02:13:43;34.60;;;18.90;;
9836;SDS011;4957;51.412;6.724;2023-02-15T02:19:18;39.93;;;18.93;;
9836;SDS011;4957;51.412;6.724;2023-02-15T02:38:08;38.90;;;20.17;;
9836;SDS011;4957;51.412;6.724;2023-02-15T02:40:55;35.70;;;19.60;;
9836;SDS011;4957;51.412;6.724;2023-02-15T02:43:57;39.93;;;21.07;;
9836;SDS011;4957;51.412;6.724;2023-02-15T02:46:36;41.47;;;20.57;;
9836;SDS011;4957;51.412;6.724;2023-02-15T02:49:15;37.03;;;19.40;;
9836;SDS011;4957;51.412;6.724;2023-02-15T02:51:40;35.90;;;19.73;;
9836;SDS011;4957;51.412;6.724;2023-02-15T02:54:06;41.13;;;19.80;;
9836;SDS011;4957;51.412;6.724;2023-02-15T02:56:34;37.67;;;19.60;;
9836;SDS011;4957;51.412;6.724;2023-02-15T02:59:12;38.93;;;19.43;;
9836;SDS011;4957;51.412;6.724;2023-02-15T03:01:50;38.43;;;20.00;;
9836;SDS011;4957;51.412;6.724;2023-02-15T03:04:45;41.13;;;19.97;;
9836;SDS011;4957;51.412;6.724;2023-02-15T03:07:16;34.93;;;18.57;;
9836;SDS011;4957;51.412;6.724;2023-02-15T03:09:48;39.20;;;20.17;;
9836;SDS011;4957;51.412;6.724;2023-02-15T03:12:22;35.37;;;18.63;;
9836;SDS011;4957;51.412;6.724;2023-02-15T03:15:01;37.43;;;19.23;;
9836;SDS011;4957;51.412;6.724;2023-02-15T03:17:37;34.10;;;18.57;;
9836;SDS011;4957;51.412;6.724;2023-02-15T03:20:11;36.00;;;19.67;;
9836;SDS011;4957;51.412;6.724;2023-02-15T03:22:40;37.43;;;20.20;;
9836;SDS011;4957;51.412;6.724;2023-02-15T03:27:45;33.83;;;18.90;;
9836;SDS011;4957;51.412;6.724;2023-02-15T03:30:13;34.03;;;19.13;;
9836;SDS011;4957;51.412;6.724;2023-02-15T03:32:43;34.27;;;18.67;;
9836;SDS011;4957;51.412;6.724;2023-02-15T03:35:09;31.10;;;18.63;;
9836;SDS011;4957;51.412;6.724;2023-02-15T03:37:40;40.70;;;21.57;;
9836;SDS011;4957;51.412;6.724;2023-02-15T03:40:23;39.47;;;20.50;;
9836;SDS011;4957;51.412;6.724;2023-02-15T03:43:19;40.27;;;20.33;;
9836;SDS011;4957;51.412;6.724;2023-02-15T03:45:52;35.43;;;19.67;;
9836;SDS011;4957;51.412;6.724;2023-02-15T03:48:33;38.80;;;19.20;;
9836;SDS011;4957;51.412;6.724;2023-02-15T03:51:05;37.73;;;20.17;;
9836;SDS011;4957;51.412;6.724;2023-02-15T03:53:55;38.60;;;20.03;;
9836;SDS011;4957;51.412;6.724;2023-02-15T03:56:23;40.73;;;21.53;;
9836;SDS011;4957;51.412;6.724;2023-02-15T03:58:49;37.53;;;19.93;;
9836;SDS011;4957;51.412;6.724;2023-02-15T04:01:38;41.47;;;21.17;;
9836;SDS011;4957;51.412;6.724;2023-02-15T04:04:23;36.60;;;19.80;;
9836;SDS011;4957;51.412;6.724;2023-02-15T04:07:00;38.77;;;20.90;;
9836;SDS011;4957;51.412;6.724;2023-02-15T04:09:26;36.20;;;18.83;;
9836;SDS011;4957;51.412;6.724;2023-02-15T04:12:11;40.87;;;19.97;;
9836;SDS011;4957;51.412;6.724;2023-02-15T04:14:36;40.60;;;20.73;;
9836;SDS011;4957;51.412;6.724;2023-02-15T04:17:20;37.17;;;19.50;;
9836;SDS011;4957;51.412;6.724;2023-02-15T04:19:46;39.10;;;20.57;;
9836;SDS011;4957;51.412;6.724;2023-02-15T04:22:30;40.00;;;20.87;;
9836;SDS011;4957;51.412;6.724;2023-02-15T04:25:14;41.00;;;21.57;;
9836;SDS011;4957;51.412;6.724;2023-02-15T04:27:42;40.23;;;20.73;;
9836;SDS011;4957;51.412;6.724;2023-02-15T04:30:10;37.73;;;20.53;;
9836;SDS011;4957;51.412;6.724;2023-02-15T04:32:37;42.90;;;20.93;;
9836;SDS011;4957;51.412;6.724;2023-02-15T04:35:04;35.13;;;20.03;;
9836;SDS011;4957;51.412;6.724;2023-02-15T04:37:30;37.03;;;19.93;;
9836;SDS011;4957;51.412;6.724;2023-02-15T04:39:57;42.10;;;22.00;;
9836;SDS011;4957;51.412;6.724;2023-02-15T04:42:25;42.57;;;21.77;;
9836;SDS011;4957;51.412;6.724;2023-02-15T04:44:52;36.60;;;18.77;;
9836;SDS011;4957;51.412;6.724;2023-02-15T04:47:18;39.50;;;20.90;;
9836;SDS011;4957;51.412;6.724;2023-02-15T04:49:45;39.27;;;19.67;;
9836;SDS011;4957;51.412;6.724;2023-02-15T04:52:10;40.23;;;20.17;;
9836;SDS011;4957;51.412;6.724;2023-02-15T04:54:36;37.90;;;21.73;;
9836;SDS011;4957;51.412;6.724;2023-02-15T04:57:02;40.20;;;21.03;;
9836;SDS011;4957;51.412;6.724;2023-02-15T04:59:29;38.67;;;19.90;;
9836;SDS011;4957;51.412;6.724;2023-02-15T05:01:54;38.50;;;20.27;;
9836;SDS011;4957;51.412;6.724;2023-02-15T05:04:20;37.73;;;19.80;;
9836;SDS011;4957;51.412;6.724;2023-02-15T05:06:46;35.97;;;19.63;;
9836;SDS011;4957;51.412;6.724;2023-02-15T05:09:12;42.70;;;22.40;;
9836;SDS011;4957;51.412;6.724;2023-02-15T05:11:37;37.90;;;20.30;;
9836;SDS011;4957;51.412;6.724;2023-02-15T05:14:03;37.53;;;19.70;;
9836;SDS011;4957;51.412;6.724;2023-02-15T05:16:29;39.43;;;21.97;;
9836;SDS011;4957;51.412;6.724;2023-02-15T05:18:55;40.37;;;20.33;;
9836;SDS011;4957;51.412;6.724;2023-02-15T05:21:21;41.50;;;22.00;;
9836;SDS011;4957;51.412;6.724;2023-02-15T05:23:47;38.43;;;19.97;;
9836;SDS011;4957;51.412;6.724;2023-02-15T05:26:15;43.30;;;20.00;;
9836;SDS011;4957;51.412;6.724;2023-02-15T05:29:02;41.33;;;20.57;;
9836;SDS011;4957;51.412;6.724;2023-02-15T05:31:29;42.27;;;19.20;;
9836;SDS011;4957;51.412;6.724;2023-02-15T05:33:56;38.63;;;19.87;;
9836;SDS011;4957;51.412;6.724;2023-02-15T05:36:22;38.80;;;20.00;;
9836;SDS011;4957;51.412;6.724;2023-02-15T05:38:48;39.10;;;19.73;;
9836;SDS011;4957;51.412;6.724;2023-02-15T05:41:14;36.50;;;19.13;;
9836;SDS011;4957;51.412;6.724;2023-02-15T05:43:40;36.60;;;19.37;;
9836;SDS011;4957;51.412;6.724;2023-02-15T05:46:05;37.60;;;20.40;;
9836;SDS011;4957;51.412;6.724;2023-02-15T05:48:32;44.77;;;21.17;;
9836;SDS011;4957;51.412;6.724;2023-02-15T05:50:59;43.70;;;20.50;;
9836;SDS011;4957;51.412;6.724;2023-02-15T05:53:30;42.17;;;21.20;;
9836;SDS011;4957;51.412;6.724;2023-02-15T05:55:57;41.80;;;20.20;;
9836;SDS011;4957;51.412;6.724;2023-02-15T05:58:28;38.87;;;20.27;;
9836;SDS011;4957;51.412;6.724;2023-02-15T06:00:55;38.53;;;19.10;;
9836;SDS011;4957;51.412;6.724;2023-02-15T06:03:21;37.67;;;20.03;;
9836;SDS011;4957;51.412;6.724;2023-02-15T06:05:48;40.03;;;19.83;;
9836;SDS011;4957;51.412;6.724;2023-02-15T06:08:14;39.87;;;18.57;;
9836;SDS011;4957;51.412;6.724;2023-02-15T06:10:40;42.43;;;21.37;;
9836;SDS011;4957;51.412;6.724;2023-02-15T06:13:06;40.80;;;19.17;;
9836;SDS011;4957;51.412;6.724;2023-02-15T06:15:32;38.90;;;20.67;;
9836;SDS011;4957;51.412;6.724;2023-02-15T06:17:58;41.13;;;19.83;;
9836;SDS011;4957;51.412;6.724;2023-02-15T06:20:24;40.87;;;21.50;;
9836;SDS011;4957;51.412;6.724;2023-02-15T06:22:49;36.37;;;19.20;;
9836;SDS011;4957;51.412;6.724;2023-02-15T06:25:15;38.97;;;20.70;;
9836;SDS011;4957;51.412;6.724;2023-02-15T06:27:41;40.23;;;18.53;;
9836;SDS011;4957;51.412;6.724;2023-02-15T06:30:08;37.40;;;19.40;;
9836;SDS011;4957;51.412;6.724;2023-02-15T06:32:34;40.90;;;19.63;;
9836;SDS011;4957;51.412;6.724;2023-02-15T06:35:00;39.10;;;20.20;;
9836;SDS011;4957;51.412;6.724;2023-02-15T06:37:26;38.47;;;20.73;;
9836;SDS011;4957;51.412;6.724;2023-02-15T06:39:52;37.77;;;19.03;;
9836;SDS011;4957;51.412;6.724;2023-02-15T06:42:18;40.17;;;20.30;;
9836;SDS011;4957;51.412;6.724;2023-02-15T06:44:44;41.53;;;19.53;;
9836;SDS011;4957;51.412;6.724;2023-02-15T06:47:10;40.43;;;20.20;;
9836;SDS011;4957;51.412;6.724;2023-02-15T06:49:36;41.53;;;19.87;;
9836;SDS011;4957;51.412;6.724;2023-02-15T06:52:03;39.67;;;21.53;;
9836;SDS011;4957;51.412;6.724;2023-02-15T06:54:29;41.07;;;20.83;;
9836;SDS011;4957;51.412;6.724;2023-02-15T06:56:54;45.17;;;20.20;;
9836;SDS011;4957;51.412;6.724;2023-02-15T06:59:20;38.00;;;19.73;;
9836;SDS011;4957;51.412;6.724;2023-02-15T07:01:46;37.90;;;19.70;;
9836;SDS011;4957;51.412;6.724;2023-02-15T07:04:12;39.87;;;20.90;;
9836;SDS011;4957;51.412;6.724;2023-02-15T07:06:37;42.33;;;20.20;;
9836;SDS011;4957;51.412;6.724;2023-02-15T07:09:04;43.63;;;21.00;;
9836;SDS011;4957;51.412;6.724;2023-02-15T07:11:30;37.63;;;20.17;;
9836;SDS011;4957;51.412;6.724;2023-02-15T07:14:14;40.33;;;19.93;;
9836;SDS011;4957;51.412;6.724;2023-02-15T07:16:40;37.00;;;20.37;;
9836;SDS011;4957;51.412;6.724;2023-02-15T07:19:06;41.00;;;19.43;;
9836;SDS011;4957;51.412;6.724;2023-02-15T07:21:32;37.77;;;19.67;;
9836;SDS011;4957;51.412;6.724;2023-02-15T07:23:58;35.97;;;18.27;;
9836;SDS011;4957;51.412;6.724;2023-02-15T07:26:25;38.80;;;18.87;;
9836;SDS011;4957;51.412;6.724;2023-02-15T07:28:51;36.43;;;18.73;;
9836;SDS011;4957;51.412;6.724;2023-02-15T07:31:17;36.10;;;19.43;;
9836;SDS011;4957;51.412;6.724;2023-02-15T07:33:42;40.07;;;18.70;;
9836;SDS011;4957;51.412;6.724;2023-02-15T07:36:08;44.63;;;19.43;;
9836;SDS011;4957;51.412;6.724;2023-02-15T07:38:37;40.50;;;19.73;;
9836;SDS011;4957;51.412;6.724;2023-02-15T07:41:08;37.97;;;17.57;;
9836;SDS011;4957;51.412;6.724;2023-02-15T07:43:37;44.77;;;18.90;;
9836;SDS011;4957;51.412;6.724;2023-02-15T07:46:06;33.43;;;16.50;;
9836;SDS011;4957;51.412;6.724;2023-02-15T07:48:34;31.83;;;16.90;;
9836;SDS011;4957;51.412;6.724;2023-02-15T07:51:02;38.20;;;16.77;;
9836;SDS011;4957;51.412;6.724;2023-02-15T07:53:28;34.37;;;17.00;;
9836;SDS011;4957;51.412;6.724;2023-02-15T07:55:57;34.70;;;16.57;;
9836;SDS011;4957;51.412;6.724;2023-02-15T07:58:24;34.17;;;18.67;;
9836;SDS011;4957;51.412;6.724;2023-02-15T08:01:10;35.70;;;17.67;;
9836;SDS011;4957;51.412;6.724;2023-02-15T08:03:36;32.67;;;16.03;;
9836;SDS011;4957;51.412;6.724;2023-02-15T08:06:02;31.10;;;16.33;;
9836;SDS011;4957;51.412;6.724;2023-02-15T08:08:28;36.83;;;17.07;;
9836;SDS011;4957;51.412;6.724;2023-02-15T08:11:03;29.07;;;15.20;;
9836;SDS011;4957;51.412;6.724;2023-02-15T08:13:50;31.57;;;15.70;;
9836;SDS011;4957;51.412;6.724;2023-02-15T08:16:41;33.77;;;16.07;;
9836;SDS011;4957;51.412;6.724;2023-02-15T08:21:47;32.00;;;16.60;;
9836;SDS011;4957;51.412;6.724;2023-02-15T08:24:15;32.00;;;17.23;;
9836;SDS011;4957;51.412;6.724;2023-02-15T08:26:42;29.73;;;15.70;;
9836;SDS011;4957;51.412;6.724;2023-02-15T08:29:10;28.73;;;17.20;;
9836;SDS011;4957;51.412;6.724;2023-02-15T08:31:36;30.60;;;16.77;;
9836;SDS011;4957;51.412;6.724;2023-02-15T08:34:02;30.00;;;15.83;;
9836;SDS011;4957;51.412;6.724;2023-02-15T08:36:29;27.77;;;15.17;;
9836;SDS011;4957;51.412;6.724;2023-02-15T08:38:59;27.93;;;17.40;;
9836;SDS011;4957;51.412;6.724;2023-02-15T08:41:29;28.07;;;14.80;;
9836;SDS011;4957;51.412;6.724;2023-02-15T08:43:57;27.53;;;16.17;;
9836;SDS011;4957;51.412;6.724;2023-02-15T08:46:25;31.50;;;14.83;;
9836;SDS011;4957;51.412;6.724;2023-02-15T08:48:56;28.93;;;14.93;;
9836;SDS011;4957;51.412;6.724;2023-02-15T08:51:23;24.37;;;15.13;;
9836;SDS011;4957;51.412;6.724;2023-02-15T08:53:54;32.13;;;16.53;;
9836;SDS011;4957;51.412;6.724;2023-02-15T08:56:26;27.83;;;14.03;;
9836;SDS011;4957;51.412;6.724;2023-02-15T08:58:54;24.17;;;14.67;;
9836;SDS011;4957;51.412;6.724;2023-02-15T09:01:21;34.00;;;14.13;;
9836;SDS011;4957;51.412;6.724;2023-02-15T09:03:49;28.50;;;14.20;;
9836;SDS011;4957;51.412;6.724;2023-02-15T09:06:19;29.13;;;15.10;;
9836;SDS011;4957;51.412;6.724;2023-02-15T09:08:45;27.53;;;15.40;;
9836;SDS011;4957;51.412;6.724;2023-02-15T09:11:15;28.93;;;14.30;;
9836;SDS011;4957;51.412;6.724;2023-02-15T09:13:47;29.57;;;15.17;;
9836;SDS011;4957;51.412;6.724;2023-02-15T09:16:15;28.03;;;14.23;;
9836;SDS011;4957;51.412;6.724;2023-02-15T09:18:41;26.77;;;14.33;;
9836;SDS011;4957;51.412;6.724;2023-02-15T09:21:14;27.60;;;14.70;;
9836;SDS011;4957;51.412;6.724;2023-02-15T09:23:42;25.17;;;13.73;;
9836;SDS011;4957;51.412;6.724;2023-02-15T09:26:10;26.07;;;13.90;;
9836;SDS011;4957;51.412;6.724;2023-02-15T09:28:38;24.73;;;15.00;;
9836;SDS011;4957;51.412;6.724;2023-02-15T09:31:08;26.17;;;15.00;;
9836;SDS011;4957;51.412;6.724;2023-02-15T09:33:34;24.37;;;13.60;;
9836;SDS011;4957;51.412;6.724;2023-02-15T09:36:01;27.73;;;13.83;;
9836;SDS011;4957;51.412;6.724;2023-02-15T09:38:31;26.63;;;14.57;;
9836;SDS011;4957;51.412;6.724;2023-02-15T09:46:47;25.80;;;13.93;;
9836;SDS011;4957;51.412;6.724;2023-02-15T09:53:00;24.87;;;15.43;;
9836;SDS011;4957;51.412;6.724;2023-02-15T09:58:17;25.03;;;14.00;;
9836;SDS011;4957;51.412;6.724;2023-02-15T10:03:32;34.73;;;14.73;;
9836;SDS011;4957;51.412;6.724;2023-02-15T10:22:36;22.03;;;12.20;;
9836;SDS011;4957;51.412;6.724;2023-02-15T10:25:24;26.27;;;12.40;;
9836;SDS011;4957;51.412;6.724;2023-02-15T10:27:58;21.43;;;12.60;;
9836;SDS011;4957;51.412;6.724;2023-02-15T10:30:50;20.07;;;12.13;;
9836;SDS011;4957;51.412;6.724;2023-02-15T10:55:38;25.60;;;12.70;;
9836;SDS011;4957;51.412;6.724;2023-02-15T11:00:52;19.70;;;12.07;;
9836;SDS011;4957;51.412;6.724;2023-02-15T11:03:42;23.47;;;12.33;;
9836;SDS011;4957;51.412;6.724;2023-02-15T11:06:17;28.53;;;12.67;;
9836;SDS011;4957;51.412;6.724;2023-02-15T11:08:46;21.87;;;12.20;;
9836;SDS011;4957;51.412;6.724;2023-02-15T11:11:29;24.83;;;12.30;;
9836;SDS011;4957;51.412;6.724;2023-02-15T11:16:47;19.40;;;12.13;;
9836;SDS011;4957;51.412;6.724;2023-02-15T11:19:22;21.03;;;11.30;;
9836;SDS011;4957;51.412;6.724;2023-02-15T11:21:57;25.10;;;12.73;;
9836;SDS011;4957;51.412;6.724;2023-02-15T11:24:27;25.57;;;13.77;;
9836;SDS011;4957;51.412;6.724;2023-02-15T11:30:02;23.63;;;13.27;;
9836;SDS011;4957;51.412;6.724;2023-02-15T11:32:33;30.23;;;14.73;;
9836;SDS011;4957;51.412;6.724;2023-02-15T11:37:39;29.80;;;12.97;;
9836;SDS011;4957;51.412;6.724;2023-02-15T11:40:30;23.63;;;12.00;;
9836;SDS011;4957;51.412;6.724;2023-02-15T11:43:20;28.07;;;12.43;;
9836;SDS011;4957;51.412;6.724;2023-02-15T11:45:57;18.93;;;10.80;;
9836;SDS011;4957;51.412;6.724;2023-02-15T11:48:23;19.73;;;11.50;;
9836;SDS011;4957;51.412;6.724;2023-02-15T11:50:49;18.63;;;10.87;;
9836;SDS011;4957;51.412;6.724;2023-02-15T11:53:18;23.40;;;11.27;;
9836;SDS011;4957;51.412;6.724;2023-02-15T11:55:47;18.87;;;10.70;;
9836;SDS011;4957;51.412;6.724;2023-02-15T12:00:42;22.03;;;10.80;;
9836;SDS011;4957;51.412;6.724;2023-02-15T12:03:33;20.20;;;11.20;;
9836;SDS011;4957;51.412;6.724;2023-02-15T12:06:14;22.70;;;10.70;;
9836;SDS011;4957;51.412;6.724;2023-02-15T12:08:52;22.07;;;11.53;;
9836;SDS011;4957;51.412;6.724;2023-02-15T12:11:28;17.20;;;10.53;;
9836;SDS011;4957;51.412;6.724;2023-02-15T12:14:01;17.50;;;10.67;;
9836;SDS011;4957;51.412;6.724;2023-02-15T12:16:32;24.03;;;11.13;;
9836;SDS011;4957;51.412;6.724;2023-02-15T12:19:09;21.07;;;11.23;;
9836;SDS011;4957;51.412;6.724;2023-02-15T12:21:55;22.20;;;11.90;;
9836;SDS011;4957;51.412;6.724;2023-02-15T12:27:25;24.27;;;10.87;;
9836;SDS011;4957;51.412;6.724;2023-02-15T12:29:58;18.53;;;10.30;;
9836;SDS011;4957;51.412;6.724;2023-02-15T12:32:34;16.33;;;10.53;;
9836;SDS011;4957;51.412;6.724;2023-02-15T12:35:14;22.13;;;10.07;;
9836;SDS011;4957;51.412;6.724;2023-02-15T12:37:53;16.37;;;9.60;;
9836;SDS011;4957;51.412;6.724;2023-02-15T12:40:26;26.00;;;11.30;;
9836;SDS011;4957;51.412;6.724;2023-02-15T12:42:55;17.50;;;10.17;;
9836;SDS011;4957;51.412;6.724;2023-02-15T12:45:29;19.87;;;10.40;;
9836;SDS011;4957;51.412;6.724;2023-02-15T12:50:38;20.77;;;10.47;;
9836;SDS011;4957;51.412;6.724;2023-02-15T12:53:31;20.60;;;9.93;;
9836;SDS011;4957;51.412;6.724;2023-02-15T12:55:59;17.87;;;10.07;;
9836;SDS011;4957;51.412;6.724;2023-02-15T12:58:28;21.50;;;10.83;;
9836;SDS011;4957;51.412;6.724;2023-02-15T13:01:03;16.50;;;9.43;;
9836;SDS011;4957;51.412;6.724;2023-02-15T13:03:59;17.90;;;10.03;;
9836;SDS011;4957;51.412;6.724;2023-02-15T13:06:38;15.73;;;9.97;;
9836;SDS011;4957;51.412;6.724;2023-02-15T13:09:21;22.40;;;10.60;;
9836;SDS011;4957;51.412;6.724;2023-02-15T13:11:56;17.20;;;10.37;;
9836;SDS011;4957;51.412;6.724;2023-02-15T13:14:33;19.23;;;10.00;;
9836;SDS011;4957;51.412;6.724;2023-02-15T13:17:00;24.47;;;10.40;;
9836;SDS011;4957;51.412;6.724;2023-02-15T13:19:35;25.10;;;10.57;;
9836;SDS011;4957;51.412;6.724;2023-02-15T13:22:19;20.47;;;9.87;;
9836;SDS011;4957;51.412;6.724;2023-02-15T13:24:50;15.90;;;9.17;;
9836;SDS011;4957;51.412;6.724;2023-02-15T13:27:20;17.60;;;9.93;;
9836;SDS011;4957;51.412;6.724;2023-02-15T13:29:49;19.17;;;10.40;;
9836;SDS011;4957;51.412;6.724;2023-02-15T13:32:28;19.97;;;10.60;;
9836;SDS011;4957;51.412;6.724;2023-02-15T13:34:59;18.47;;;9.47;;
9836;SDS011;4957;51.412;6.724;2023-02-15T13:37:34;19.57;;;9.20;;
9836;SDS011;4957;51.412;6.724;2023-02-15T13:43:33;18.73;;;9.93;;
9836;SDS011;4957;51.412;6.724;2023-02-15T13:47:09;18.73;;;10.20;;
9836;SDS011;4957;51.412;6.724;2023-02-15T13:51:55;21.30;;;9.93;;
9836;SDS011;4957;51.412;6.724;2023-02-15T13:54:31;17.33;;;8.67;;
9836;SDS011;4957;51.412;6.724;2023-02-15T14:00:38;25.63;;;9.53;;
9836;SDS011;4957;51.412;6.724;2023-02-15T14:06:23;19.03;;;9.53;;
9836;SDS011;4957;51.412;6.724;2023-02-15T14:09:30;18.53;;;9.13;;
9836;SDS011;4957;51.412;6.724;2023-02-15T14:12:14;21.23;;;10.20;;
9836;SDS011;4957;51.412;6.724;2023-02-15T14:17:40;22.47;;;11.17;;
9836;SDS011;4957;51.412;6.724;2023-02-15T14:20:25;23.97;;;11.07;;
9836;SDS011;4957;51.412;6.724;2023-02-15T14:23:12;26.10;;;11.57;;
9836;SDS011;4957;51.412;6.724;2023-02-15T14:25:55;24.43;;;12.23;;
9836;SDS011;4957;51.412;6.724;2023-02-15T14:30:56;24.43;;;12.90;;
9836;SDS011;4957;51.412;6.724;2023-02-15T14:33:29;22.17;;;11.07;;
9836;SDS011;4957;51.412;6.724;2023-02-15T14:36:02;23.50;;;11.50;;
9836;SDS011;4957;51.412;6.724;2023-02-15T14:44:12;19.63;;;10.60;;
9836;SDS011;4957;51.412;6.724;2023-02-15T14:46:59;22.67;;;9.80;;
9836;SDS011;4957;51.412;6.724;2023-02-15T14:49:32;24.57;;;10.90;;
9836;SDS011;4957;51.412;6.724;2023-02-15T14:52:03;35.70;;;16.30;;
9836;SDS011;4957;51.412;6.724;2023-02-15T15:07:10;20.23;;;11.00;;
9836;SDS011;4957;51.412;6.724;2023-02-15T15:09:45;19.73;;;10.93;;
9836;SDS011;4957;51.412;6.724;2023-02-15T15:14:48;22.60;;;12.13;;
9836;SDS011;4957;51.412;6.724;2023-02-15T15:20:13;21.43;;;12.47;;
9836;SDS011;4957;51.412;6.724;2023-02-15T15:25:44;22.53;;;10.13;;
9836;SDS011;4957;51.412;6.724;2023-02-15T15:37:12;21.97;;;11.57;;
9836;SDS011;4957;51.412;6.724;2023-02-15T15:40:12;20.63;;;10.80;;
9836;SDS011;4957;51.412;6.724;2023-02-15T15:48:26;19.87;;;10.47;;
9836;SDS011;4957;51.412;6.724;2023-02-15T15:51:05;19.00;;;10.10;;
9836;SDS011;4957;51.412;6.724;2023-02-15T15:53:38;27.77;;;11.13;;
9836;SDS011;4957;51.412;6.724;2023-02-15T15:56:13;23.37;;;11.90;;
9836;SDS011;4957;51.412;6.724;2023-02-15T15:58:46;23.57;;;12.20;;
9836;SDS011;4957;51.412;6.724;2023-02-15T16:01:16;27.00;;;12.67;;
9836;SDS011;4957;51.412;6.724;2023-02-15T16:03:51;33.63;;;11.23;;
9836;SDS011;4957;51.412;6.724;2023-02-15T16:06:28;24.77;;;13.13;;
9836;SDS011;4957;51.412;6.724;2023-02-15T16:09:09;26.40;;;13.20;;
9836;SDS011;4957;51.412;6.724;2023-02-15T16:11:36;25.10;;;12.33;;
9836;SDS011;4957;51.412;6.724;2023-02-15T16:14:10;22.10;;;12.27;;
9836;SDS011;4957;51.412;6.724;2023-02-15T16:16:57;34.63;;;12.40;;
9836;SDS011;4957;51.412;6.724;2023-02-15T16:19:29;25.00;;;12.17;;
9836;SDS011;4957;51.412;6.724;2023-02-15T16:22:00;23.00;;;11.37;;
9836;SDS011;4957;51.412;6.724;2023-02-15T16:27:05;29.03;;;14.87;;
9836;SDS011;4957;51.412;6.724;2023-02-15T16:29:44;27.40;;;13.43;;
9836;SDS011;4957;51.412;6.724;2023-02-15T16:32:17;26.23;;;12.37;;
9836;SDS011;4957;51.412;6.724;2023-02-15T16:34:58;23.23;;;12.80;;
9836;SDS011;4957;51.412;6.724;2023-02-15T16:37:32;26.37;;;13.17;;
9836;SDS011;4957;51.412;6.724;2023-02-15T16:39:59;21.00;;;11.93;;
9836;SDS011;4957;51.412;6.724;2023-02-15T16:42:25;22.53;;;11.80;;
9836;SDS011;4957;51.412;6.724;2023-02-15T16:45:01;19.60;;;11.47;;
9836;SDS011;4957;51.412;6.724;2023-02-15T16:47:33;21.17;;;11.87;;
9836;SDS011;4957;51.412;6.724;2023-02-15T16:50:05;35.37;;;16.23;;
9836;SDS011;4957;51.412;6.724;2023-02-15T16:52:31;22.07;;;11.53;;
9836;SDS011;4957;51.412;6.724;2023-02-15T16:54:58;21.67;;;12.50;;
9836;SDS011;4957;51.412;6.724;2023-02-15T16:57:27;21.53;;;11.80;;
9836;SDS011;4957;51.412;6.724;2023-02-15T17:00:06;22.37;;;11.90;;
9836;SDS011;4957;51.412;6.724;2023-02-15T17:02:42;23.73;;;12.03;;
9836;SDS011;4957;51.412;6.724;2023-02-15T17:05:40;18.00;;;11.80;;
9836;SDS011;4957;51.412;6.724;2023-02-15T17:13:28;26.53;;;12.97;;
9836;SDS011;4957;51.412;6.724;2023-02-15T17:18:31;29.20;;;14.13;;
9836;SDS011;4957;51.412;6.724;2023-02-15T17:21:08;23.90;;;15.07;;
9836;SDS011;4957;51.412;6.724;2023-02-15T17:23:43;33.77;;;13.93;;
9836;SDS011;4957;51.412;6.724;2023-02-15T17:26:14;26.63;;;13.47;;
9836;SDS011;4957;51.412;6.724;2023-02-15T17:29:26;24.87;;;13.93;;
9836;SDS011;4957;51.412;6.724;2023-02-15T17:31:35;28.80;;;14.37;;
9836;SDS011;4957;51.412;6.724;2023-02-15T17:34:02;26.23;;;14.20;;
9836;SDS011;4957;51.412;6.724;2023-02-15T17:36:28;23.37;;;14.47;;
9836;SDS011;4957;51.412;6.724;2023-02-15T17:41:28;29.63;;;12.60;;
9836;SDS011;4957;51.412;6.724;2023-02-15T17:43:55;22.43;;;12.13;;
9836;SDS011;4957;51.412;6.724;2023-02-15T17:46:21;27.23;;;13.37;;
9836;SDS011;4957;51.412;6.724;2023-02-15T17:48:48;27.30;;;13.07;;
9836;SDS011;4957;51.412;6.724;2023-02-15T17:51:16;24.70;;;13.20;;
9836;SDS011;4957;51.412;6.724;2023-02-15T17:53:43;22.80;;;13.03;;
9836;SDS011;4957;51.412;6.724;2023-02-15T17:56:29;22.20;;;11.87;;
9836;SDS011;4957;51.412;6.724;2023-02-15T17:58:56;26.53;;;12.37;;
9836;SDS011;4957;51.412;6.724;2023-02-15T18:01:21;23.47;;;12.00;;
9836;SDS011;4957;51.412;6.724;2023-02-15T18:04:10;28.70;;;12.83;;
9836;SDS011;4957;51.412;6.724;2023-02-15T18:06:56;23.10;;;12.30;;
9836;SDS011;4957;51.412;6.724;2023-02-15T18:09:40;21.97;;;12.47;;